Fall River Mills, CA (96028)

9:02 PM PST on February 26, 2015 (GMT -0800)
McArthur-Burney Falls Memorial State Park | Change Station
CLOSE
Current Station
Personal Weather Station
Location: Burney, CA
Elevation: 3002 ft
Nearby Weather Stations

Elev 3002 ft 41.01 °N, 121.65 °W | Updated 6 minutes ago

Overcast
Overcast
46.7 °F
Feels Like 47 °F
N
0.0
Wind Variable Wind from West
Gusts 1.0 mph

Today
High -- | Low -- °F
--% Chance of Precip.
Yesterday
High -- | Low -- °F
Precip. -- in
6:44 AM 5:53 PM
Waxing Gibbous, 65% visible
Pressure 30.01 in
Visibility 10.0 miles
Clouds Mostly Cloudy 7000 ft
Windchill 47 °F
Dew Point 36 °F
Humidity 67%
Rainfall 0.00 in
Snow Depth Not available.
UV 0 out of 12
Pollen 8.00 out of 12
Air Quality Not available.
Flu Activity Not available.
METAR KMHS 270456Z AUTO VRB05KT 10SM BKN070 04/02 A2995 RMK AO2 SLP161 T00440022

More Conditions Fewer Conditions

Pressure 30.01 in
Visibility 10.0 miles
Clouds Mostly Cloudy 7000 ft
Windchill 47 °F
Dew Point 36 °F
Humidity 67%
Rainfall 0.00 in
Snow Depth Not available.
UV 0 out of 12
Pollen 8.00 out of 12
Air Quality Not available.
Flu Activity Not available.
METAR KMHS 270456Z AUTO VRB05KT 10SM BKN070 04/02 A2995 RMK AO2 SLP161 T00440022

More Conditions Fewer Conditions

10-Day Weather Forecast

Almanac

Astronomy

Feb. 26, 2015 Rise Set
Actual Time
Civil Twilight
Nautical Twilight
Astronomical Twilight
Moon
Length of Visible Light
Length of Day
Tomorrow will be .
, % of the Moon is Illuminated

Today's Extremes

State Highs State Lows

Community

WunderPhotos

Upload Photos

1,800,636 photos uploaded!

WunderBlogs® & News

Nearby

Air Quality

  Air Quality AQ Index Pollutant
Not available.

Snow Depth

Station Depth Elevation

Earthquake Activity

City Distance Mag. Time & Date
Minimum magnitude displayed is 2.5.

Coastal Water Temperatures

Place Temperature

Nearby Weather Stations